createdAt,value
2018-09-18T00:02:23.141Z,6.73
2018-09-18T00:04:51.599Z,6.20
2018-09-18T00:07:20.177Z,6.60
2018-09-18T00:09:49.336Z,6.67
2018-09-18T00:12:18.463Z,6.17
2018-09-18T00:14:46.927Z,6.30
2018-09-18T00:17:15.401Z,5.90
2018-09-18T00:19:44.909Z,6.30
2018-09-18T00:22:13.951Z,7.17
2018-09-18T00:24:42.497Z,6.23
2018-09-18T00:27:11.784Z,5.90
2018-09-18T00:29:40.235Z,6.30
2018-09-18T00:32:08.737Z,5.73
2018-09-18T00:34:37.911Z,6.63
2018-09-18T00:37:07.120Z,5.90
2018-09-18T00:39:35.577Z,6.10
2018-09-18T00:42:04.463Z,6.70
2018-09-18T00:44:33.972Z,5.40
2018-09-18T00:47:02.474Z,5.80
2018-09-18T00:49:31.418Z,5.97
2018-09-18T00:52:00.568Z,5.93
2018-09-18T00:54:29.034Z,6.47
2018-09-18T00:56:58.207Z,6.13
2018-09-18T00:59:27.272Z,6.80
2018-09-18T01:01:56.462Z,6.50
2018-09-18T01:04:25.098Z,6.50
2018-09-18T01:06:53.676Z,6.30
2018-09-18T01:09:22.133Z,5.77
2018-09-18T01:11:50.731Z,6.13
2018-09-18T01:14:19.829Z,6.03
2018-09-18T01:16:48.387Z,6.50
2018-09-18T01:19:17.223Z,6.77
2018-09-18T01:21:45.713Z,6.00
2018-09-18T01:24:14.831Z,6.43
2018-09-18T01:26:44.018Z,6.90
2018-09-18T01:29:13.501Z,6.10
2018-09-18T01:31:42.753Z,5.83
2018-09-18T01:34:11.797Z,6.30
2018-09-18T01:36:41.165Z,6.47
2018-09-18T01:39:10.239Z,6.20
2018-09-18T01:41:39.047Z,5.70
2018-09-18T01:44:08.750Z,6.13
2018-09-18T01:46:37.551Z,6.20
2018-09-18T01:49:06.352Z,6.50
2018-09-18T01:51:35.625Z,6.30
2018-09-18T01:54:04.655Z,5.80
2018-09-18T01:56:33.135Z,6.13
2018-09-18T01:59:01.729Z,5.97
2018-09-18T02:01:30.374Z,6.00
2018-09-18T02:03:58.752Z,6.37
2018-09-18T02:06:28.214Z,7.10
2018-09-18T02:08:57.267Z,6.30
2018-09-18T02:11:25.683Z,6.23
2018-09-18T02:13:54.450Z,5.83
2018-09-18T02:16:23.160Z,6.50
2018-09-18T02:18:51.664Z,7.07
2018-09-18T02:21:20.601Z,6.37
2018-09-18T02:23:49.084Z,6.60
2018-09-18T02:26:19.295Z,6.43
2018-09-18T02:28:47.747Z,6.63
2018-09-18T02:31:16.389Z,6.47
2018-09-18T02:33:44.981Z,6.07
2018-09-18T02:36:17.803Z,6.03
2018-09-18T02:38:46.992Z,6.43
2018-09-18T02:41:15.529Z,6.10
2018-09-18T02:43:43.999Z,6.70
2018-09-18T02:46:13.081Z,6.23
2018-09-18T02:48:41.857Z,6.57
2018-09-18T02:51:10.746Z,5.50
2018-09-18T02:53:40.260Z,6.40
2018-09-18T02:56:09.098Z,6.53
2018-09-18T02:58:38.447Z,6.30
2018-09-18T03:01:07.652Z,6.30
2018-09-18T03:03:36.937Z,6.03
2018-09-18T03:06:06.164Z,6.20
2018-09-18T03:08:35.500Z,6.60
2018-09-18T03:11:04.016Z,6.80
2018-09-18T03:13:32.556Z,6.63
2018-09-18T03:16:02.230Z,5.93
2018-09-18T03:18:30.834Z,6.83
2018-09-18T03:20:59.720Z,6.63
2018-09-18T03:23:28.829Z,7.40
2018-09-18T03:25:57.243Z,6.53
2018-09-18T03:28:25.792Z,7.27
2018-09-18T03:30:54.947Z,6.57
2018-09-18T03:33:23.656Z,7.00
2018-09-18T03:35:52.185Z,7.10
2018-09-18T03:38:20.826Z,6.53
2018-09-18T03:40:49.847Z,6.97
2018-09-18T03:43:18.928Z,7.60
2018-09-18T03:45:48.242Z,8.00
2018-09-18T03:48:16.872Z,8.60
2018-09-18T03:50:45.489Z,10.03
2018-09-18T03:53:13.998Z,8.83
2018-09-18T03:55:42.631Z,10.10
2018-09-18T03:58:11.805Z,11.30
2018-09-18T04:00:40.916Z,11.47
2018-09-18T04:03:10.176Z,11.83
2018-09-18T04:05:39.199Z,11.40
2018-09-18T04:08:11.642Z,10.90
2018-09-18T04:10:40.792Z,10.50
2018-09-18T04:13:09.844Z,10.23
2018-09-18T04:15:38.672Z,10.90
2018-09-18T04:18:07.463Z,11.50
2018-09-18T04:20:35.938Z,12.57
2018-09-18T04:23:04.979Z,11.10
2018-09-18T04:25:34.194Z,11.47
2018-09-18T04:28:03.436Z,11.70
2018-09-18T04:30:32.399Z,10.83
2018-09-18T04:33:02.045Z,11.17
2018-09-18T04:35:31.310Z,11.17
2018-09-18T04:38:00.635Z,11.27
2018-09-18T04:40:29.085Z,11.97
2018-09-18T04:42:57.613Z,12.60
2018-09-18T04:45:26.244Z,11.83
2018-09-18T04:47:55.464Z,12.00
2018-09-18T04:50:24.662Z,11.40
2018-09-18T04:52:53.121Z,11.57
2018-09-18T04:55:22.276Z,12.20
2018-09-18T04:57:51.522Z,10.50
2018-09-18T05:00:19.988Z,10.67
2018-09-18T05:02:49.005Z,8.83
2018-09-18T05:05:17.566Z,8.40
2018-09-18T05:07:46.616Z,7.73
2018-09-18T05:10:16.061Z,8.20
2018-09-18T05:12:45.274Z,8.57
2018-09-18T05:15:14.696Z,7.37
2018-09-18T05:17:43.406Z,8.50
2018-09-18T05:20:11.851Z,8.23
2018-09-18T05:22:41.115Z,8.03
2018-09-18T05:25:10.306Z,8.10
2018-09-18T05:27:38.802Z,7.87
2018-09-18T05:30:07.296Z,8.23
2018-09-18T05:32:35.783Z,8.50
2018-09-18T05:35:04.326Z,8.10
2018-09-18T05:37:32.812Z,8.57
2018-09-18T05:40:02.090Z,8.53
2018-09-18T05:42:31.187Z,10.57
2018-09-18T05:44:59.784Z,9.20
2018-09-18T05:47:28.563Z,9.10
2018-09-18T05:49:57.019Z,9.17
2018-09-18T05:52:26.174Z,9.93
2018-09-18T05:54:54.666Z,9.33
2018-09-18T05:57:23.723Z,9.27
2018-09-18T05:59:52.289Z,9.90
2018-09-18T06:02:21.086Z,9.37
2018-09-18T06:04:50.107Z,9.10
2018-09-18T06:07:18.713Z,9.67
2018-09-18T06:09:47.357Z,10.40
2018-09-18T06:12:16.531Z,10.97
2018-09-18T06:14:45.715Z,20.00
2018-09-18T06:17:14.755Z,12.80
2018-09-18T06:19:44.135Z,11.30
2018-09-18T06:22:13.289Z,12.17
2018-09-18T06:24:42.236Z,11.47
2018-09-18T06:27:11.379Z,10.40
2018-09-18T06:29:40.000Z,10.10
2018-09-18T06:32:08.441Z,15.27
2018-09-18T06:34:37.769Z,11.90
2018-09-18T06:37:06.266Z,10.53
2018-09-18T06:39:35.365Z,11.53
2018-09-18T06:42:04.337Z,12.27
2018-09-18T06:44:33.794Z,10.63
2018-09-18T06:47:03.021Z,10.50
2018-09-18T06:49:31.469Z,16.60
2018-09-18T06:51:59.949Z,13.53
2018-09-18T06:54:28.609Z,13.17
2018-09-18T06:56:57.779Z,12.47
2018-09-18T06:59:26.281Z,12.03
2018-09-18T07:01:54.777Z,11.67
2018-09-18T07:04:23.980Z,11.70
2018-09-18T07:06:52.994Z,11.17
2018-09-18T07:09:21.532Z,10.77
2018-09-18T07:11:50.036Z,11.73
2018-09-18T07:14:18.633Z,10.80
2018-09-18T07:16:47.939Z,11.70
2018-09-18T07:19:17.912Z,10.97
2018-09-18T07:21:47.342Z,11.03
2018-09-18T07:24:15.806Z,10.57
2018-09-18T07:26:44.644Z,10.73
2018-09-18T07:29:13.197Z,10.10
2018-09-18T07:31:42.547Z,10.07
2018-09-18T07:34:11.132Z,9.87
2018-09-18T07:36:39.910Z,9.83
2018-09-18T07:39:10.165Z,9.40
2018-09-18T07:41:38.753Z,9.83
2018-09-18T07:44:07.390Z,9.60
2018-09-18T07:46:37.311Z,10.30
2018-09-18T07:49:06.413Z,16.57
2018-09-18T07:51:35.697Z,12.60
2018-09-18T07:54:04.196Z,8.53
2018-09-18T07:56:32.969Z,8.80
2018-09-18T07:59:02.438Z,10.03
2018-09-18T08:01:31.575Z,9.40
2018-09-18T08:04:00.678Z,8.77
2018-09-18T08:06:29.994Z,8.83
2018-09-18T08:08:58.958Z,8.30
2018-09-18T08:11:27.451Z,8.67
2018-09-18T08:13:55.955Z,9.20
2018-09-18T08:16:25.141Z,8.10
2018-09-18T08:18:53.718Z,8.37
2018-09-18T08:21:22.216Z,8.03
2018-09-18T08:23:50.714Z,7.73
2018-09-18T08:26:20.242Z,8.57
2018-09-18T08:28:49.469Z,8.00
2018-09-18T08:31:18.589Z,8.10
2018-09-18T08:33:48.342Z,8.80
2018-09-18T08:36:17.021Z,8.60
2018-09-18T08:38:46.285Z,8.70
2018-09-18T08:41:14.805Z,8.73
2018-09-18T08:43:43.820Z,8.17
2018-09-18T08:46:13.048Z,8.60
2018-09-18T08:48:47.359Z,8.60
2018-09-18T08:51:15.797Z,7.33
2018-09-18T08:53:44.392Z,7.00
2018-09-18T08:56:13.975Z,6.63
2018-09-18T08:58:43.298Z,6.60
2018-09-18T09:01:12.021Z,7.00
2018-09-18T09:03:40.475Z,7.00
2018-09-18T09:06:09.933Z,6.90
2018-09-18T09:08:39.303Z,6.80
2018-09-18T09:11:07.785Z,6.87
2018-09-18T09:13:36.333Z,6.50
2018-09-18T09:16:05.012Z,6.53
2018-09-18T09:18:34.340Z,6.40
2018-09-18T09:21:03.581Z,6.90
2018-09-18T09:23:32.772Z,7.03
2018-09-18T09:26:01.355Z,6.50
2018-09-18T09:28:30.184Z,6.40
2018-09-18T09:30:58.694Z,6.37
2018-09-18T09:33:27.260Z,6.40
2018-09-18T09:35:55.840Z,6.37
2018-09-18T09:38:24.934Z,6.70
2018-09-18T09:40:53.662Z,5.93
2018-09-18T09:43:22.773Z,6.10
2018-09-18T09:45:51.215Z,5.60
2018-09-18T09:48:19.680Z,5.90
2018-09-18T09:50:48.142Z,5.37
2018-09-18T09:53:16.872Z,5.83
2018-09-18T09:55:46.163Z,5.80
2018-09-18T09:58:15.238Z,5.53
2018-09-18T10:00:49.183Z,5.90
2018-09-18T10:03:18.949Z,5.07
2018-09-18T10:05:47.691Z,5.87
2018-09-18T10:08:16.164Z,5.50
2018-09-18T10:10:44.744Z,5.63
2018-09-18T10:13:13.459Z,5.70
2018-09-18T10:15:42.975Z,5.30
2018-09-18T10:18:11.484Z,5.20
2018-09-18T10:20:39.924Z,6.10
2018-09-18T10:23:08.939Z,5.07
2018-09-18T10:25:37.421Z,5.50
2018-09-18T10:28:06.525Z,5.13
2018-09-18T10:30:35.092Z,5.13
2018-09-18T10:33:03.971Z,5.60
2018-09-18T10:35:33.318Z,5.13
2018-09-18T10:39:33.109Z,5.30
2018-09-18T10:42:01.776Z,5.47
2018-09-18T10:44:30.324Z,5.40
2018-09-18T10:46:58.837Z,5.27
2018-09-18T10:49:28.472Z,5.13
2018-09-18T10:51:57.491Z,5.27
2018-09-18T10:54:26.531Z,6.20
2018-09-18T10:56:55.624Z,5.13
2018-09-18T10:59:26.387Z,5.30
2018-09-18T11:01:55.189Z,5.70
2018-09-18T11:04:24.166Z,4.93
2018-09-18T11:06:52.891Z,5.73
2018-09-18T11:09:22.176Z,5.30
2018-09-18T11:11:50.651Z,4.50
2018-09-18T11:14:19.783Z,5.40
2018-09-18T11:16:48.178Z,5.57
2018-09-18T11:19:17.453Z,5.73
2018-09-18T11:21:46.424Z,4.93
2018-09-18T11:24:17.061Z,5.23
2018-09-18T11:26:45.585Z,5.60
2018-09-18T11:29:14.192Z,5.50
2018-09-18T11:31:43.367Z,5.00
2018-09-18T11:34:11.798Z,5.07
2018-09-18T11:36:41.011Z,5.80
2018-09-18T11:39:10.230Z,4.67
2018-09-18T11:41:39.435Z,4.60
2018-09-18T11:44:08.565Z,5.23
2018-09-18T11:46:37.177Z,4.70
2018-09-18T11:49:06.130Z,4.87
2018-09-18T11:51:35.381Z,5.30
2018-09-18T11:54:04.632Z,5.40
2018-09-18T11:56:34.609Z,5.73
2018-09-18T11:59:03.924Z,5.83
2018-09-18T12:01:33.365Z,5.03
2018-09-18T12:04:02.564Z,5.90
2018-09-18T12:06:32.049Z,5.87
2018-09-18T12:09:00.555Z,6.00
2018-09-18T12:11:29.763Z,5.20
2018-09-18T12:13:59.001Z,5.63
2018-09-18T12:16:27.831Z,4.70
2018-09-18T12:18:57.089Z,4.83
2018-09-18T12:21:25.553Z,4.23
2018-09-18T12:23:54.395Z,4.37
2018-09-18T12:26:22.911Z,4.30
2018-09-18T12:28:52.614Z,4.07
2018-09-18T12:31:21.205Z,5.00
2018-09-18T12:33:49.818Z,5.00
2018-09-18T12:36:19.991Z,5.00
2018-09-18T12:38:49.898Z,4.87
2018-09-18T12:41:19.329Z,5.27
2018-09-18T12:43:47.854Z,4.37
2018-09-18T12:46:17.145Z,4.93
2018-09-18T12:48:46.324Z,4.80
2018-09-18T12:51:14.964Z,4.97
2018-09-18T12:53:44.477Z,4.90
2018-09-18T12:56:19.761Z,5.40
2018-09-18T12:58:49.030Z,5.40
2018-09-18T13:01:18.190Z,5.90
2018-09-18T13:03:47.155Z,5.60
2018-09-18T13:06:17.037Z,5.10
2018-09-18T13:08:46.015Z,5.90
2018-09-18T13:11:15.269Z,5.77
2018-09-18T13:13:44.764Z,5.17
2018-09-18T13:16:13.420Z,4.90
2018-09-18T13:18:42.060Z,5.07
2018-09-18T13:21:10.629Z,4.83
2018-09-18T13:23:39.511Z,5.27
2018-09-18T13:26:08.624Z,4.63
2018-09-18T13:28:37.180Z,4.90
2018-09-18T13:31:06.325Z,5.13
2018-09-18T13:33:35.579Z,4.70
2018-09-18T13:36:05.091Z,5.03
2018-09-18T13:38:33.628Z,5.07
2018-09-18T13:41:02.555Z,5.50
2018-09-18T13:43:31.527Z,5.07
2018-09-18T13:46:00.771Z,4.93
2018-09-18T13:48:29.840Z,5.03
2018-09-18T13:50:59.320Z,5.07
2018-09-18T13:53:29.141Z,4.90
2018-09-18T13:55:58.660Z,4.70
2018-09-18T13:58:27.101Z,5.00
2018-09-18T14:00:55.940Z,4.77
2018-09-18T14:03:25.271Z,4.70
2018-09-18T14:05:55.729Z,4.90
2018-09-18T14:08:24.501Z,4.00
2018-09-18T14:10:53.567Z,5.73
2018-09-18T14:13:22.501Z,4.97
2018-09-18T14:15:51.377Z,4.70
2018-09-18T14:18:19.967Z,4.57
2018-09-18T14:20:48.516Z,4.63
2018-09-18T14:23:17.597Z,5.47
2018-09-18T14:25:47.488Z,4.77
2018-09-18T14:28:16.122Z,5.20
2018-09-18T14:30:49.537Z,4.90
2018-09-18T14:33:18.616Z,5.37
2018-09-18T14:35:48.669Z,6.00
2018-09-18T14:38:18.233Z,6.17
2018-09-18T14:40:47.280Z,4.83
2018-09-18T14:43:15.853Z,6.00
2018-09-18T14:45:44.864Z,5.10
2018-09-18T14:48:14.043Z,5.07
2018-09-18T14:50:42.785Z,4.47
2018-09-18T14:53:11.385Z,5.00
2018-09-18T14:55:40.652Z,5.10
2018-09-18T14:58:09.943Z,4.37
2018-09-18T15:00:39.151Z,5.63
2018-09-18T15:03:08.305Z,5.00
2018-09-18T15:05:36.905Z,5.23
2018-09-18T15:08:05.371Z,5.17
2018-09-18T15:10:33.886Z,5.53
2018-09-18T15:13:02.423Z,5.53
2018-09-18T15:15:31.559Z,5.50
2018-09-18T15:18:00.648Z,5.13
2018-09-18T15:20:30.200Z,5.60
2018-09-18T15:22:59.586Z,6.00
2018-09-18T15:25:28.809Z,7.10
2018-09-18T15:27:58.115Z,5.40
2018-09-18T15:30:26.612Z,5.70
2018-09-18T15:32:55.833Z,5.90
2018-09-18T15:35:24.338Z,5.87
2018-09-18T15:37:52.824Z,5.90
2018-09-18T15:40:21.876Z,5.67
2018-09-18T15:42:52.124Z,6.60
2018-09-18T15:45:20.708Z,7.10
2018-09-18T15:47:49.429Z,6.23
2018-09-18T15:50:18.145Z,6.30
2018-09-18T15:52:47.007Z,5.67
2018-09-18T15:55:17.071Z,7.00
2018-09-18T15:57:46.105Z,6.70
2018-09-18T16:00:15.260Z,6.20
2018-09-18T16:02:44.502Z,6.27
2018-09-18T16:05:14.079Z,6.20
2018-09-18T16:07:44.418Z,6.53
2018-09-18T16:10:13.097Z,6.90
2018-09-18T16:12:42.852Z,6.90
2018-09-18T16:15:11.897Z,6.70
2018-09-18T16:17:41.257Z,7.13
2018-09-18T16:20:10.282Z,6.70
2018-09-18T16:22:39.781Z,6.73
2018-09-18T16:25:09.055Z,6.30
2018-09-18T16:27:37.989Z,6.73
2018-09-18T16:30:07.277Z,7.00
2018-09-18T16:32:35.820Z,7.83
2018-09-18T16:35:04.681Z,6.20
2018-09-18T16:37:34.153Z,6.30
2018-09-18T16:40:03.396Z,6.57
2018-09-18T16:42:32.811Z,6.70
2018-09-18T16:45:01.266Z,6.83
2018-09-18T16:47:30.094Z,6.00
2018-09-18T16:49:58.818Z,6.07
2018-09-18T16:52:27.725Z,6.00
2018-09-18T16:54:56.921Z,5.27
2018-09-18T16:57:26.356Z,5.57
2018-09-18T16:59:55.203Z,5.10
2018-09-18T17:02:25.595Z,4.43
2018-09-18T17:04:54.489Z,4.07
2018-09-18T17:07:23.623Z,3.47
2018-09-18T17:09:56.099Z,3.70
2018-09-18T17:12:30.433Z,3.10
2018-09-18T17:15:00.107Z,3.17
2018-09-18T17:17:30.385Z,3.57
2018-09-18T17:19:59.334Z,3.60
2018-09-18T17:22:27.969Z,3.17
2018-09-18T17:24:56.664Z,3.30
2018-09-18T17:27:25.848Z,3.20
2018-09-18T17:29:55.692Z,3.37
2018-09-18T17:32:24.666Z,5.67
2018-09-18T17:34:53.780Z,3.10
2018-09-18T17:37:22.707Z,3.70
2018-09-18T17:39:52.403Z,3.73
2018-09-18T17:42:21.338Z,3.67
2018-09-18T17:44:51.534Z,3.50
2018-09-18T17:47:20.785Z,3.47
2018-09-18T17:49:50.120Z,3.50
2018-09-18T17:52:19.219Z,3.87
2018-09-18T17:54:48.598Z,3.93
2018-09-18T17:57:24.553Z,3.83
2018-09-18T17:59:54.216Z,2.90
2018-09-18T18:02:23.034Z,3.47
2018-09-18T18:04:51.592Z,3.63
2018-09-18T18:07:20.570Z,3.10
2018-09-18T18:09:49.810Z,3.53
2018-09-18T18:12:19.175Z,3.80
2018-09-18T18:14:48.525Z,3.77
2018-09-18T18:17:17.192Z,3.90
2018-09-18T18:19:46.333Z,4.73
2018-09-18T18:22:15.072Z,4.50
2018-09-18T18:24:44.245Z,4.00
2018-09-18T18:27:12.952Z,4.00
2018-09-18T18:29:41.745Z,4.10
2018-09-18T18:32:11.081Z,4.13
2018-09-18T18:34:40.286Z,3.80
2018-09-18T18:37:09.692Z,3.23
2018-09-18T18:39:38.934Z,2.80
2018-09-18T18:42:13.210Z,3.20
2018-09-18T18:44:44.195Z,2.93
2018-09-18T18:47:16.030Z,2.30
2018-09-18T18:49:47.897Z,2.40
2018-09-18T18:52:18.646Z,2.37
2018-09-18T18:54:48.941Z,2.30
2018-09-18T18:57:20.587Z,1.97
2018-09-18T18:59:51.401Z,1.97
2018-09-18T19:02:20.608Z,2.33
2018-09-18T19:04:49.929Z,2.00
2018-09-18T19:07:18.532Z,2.30
2018-09-18T19:09:49.941Z,2.00
2018-09-18T19:12:20.744Z,2.50
2018-09-18T19:14:51.116Z,2.27
2018-09-18T19:17:22.281Z,2.10
2018-09-18T19:19:51.258Z,2.27
2018-09-18T19:22:23.974Z,2.30
2018-09-18T19:24:55.371Z,1.80
2018-09-18T19:27:23.864Z,2.00
2018-09-18T19:29:52.988Z,2.27
2018-09-18T19:32:21.624Z,2.40
2018-09-18T19:34:50.533Z,2.00
2018-09-18T19:37:20.023Z,2.27
2018-09-18T19:39:49.226Z,2.23
2018-09-18T19:42:18.495Z,2.43
2018-09-18T19:44:48.452Z,2.47
2018-09-18T19:47:16.968Z,2.17
2018-09-18T19:49:46.316Z,2.80
2018-09-18T19:52:15.279Z,2.30
2018-09-18T19:54:46.569Z,2.47
2018-09-18T19:57:19.985Z,2.90
2018-09-18T19:59:51.214Z,2.30
2018-09-18T20:02:21.733Z,2.70
2018-09-18T20:04:50.956Z,1.90
2018-09-18T20:07:22.434Z,2.00
2018-09-18T20:09:53.304Z,2.70
2018-09-18T20:12:25.209Z,2.50
2018-09-18T20:14:54.148Z,2.70
2018-09-18T20:17:29.174Z,3.50
2018-09-18T20:20:01.657Z,2.40
2018-09-18T20:22:32.260Z,2.43
2018-09-18T20:25:02.495Z,2.60
2018-09-18T20:27:32.492Z,2.70
2018-09-18T20:30:01.251Z,3.47
2018-09-18T20:32:33.469Z,3.07
2018-09-18T20:35:02.186Z,3.10
2018-09-18T20:37:30.725Z,2.80
2018-09-18T20:40:01.475Z,2.77
2018-09-18T20:42:32.137Z,2.80
2018-09-18T20:45:03.684Z,3.17
2018-09-18T20:47:36.013Z,2.60
2018-09-18T20:50:09.371Z,3.10
